Time;durP1;ratioP1;P1;durP2;ratioP2;P2;SDS_P1;SDS_P2;PMS_P1;PMS_P2;Temp;Humidity;BMP_temperature;BMP_pressure;BME280_temperature;BME280_humidity;BME280_pressure;Samples;Min_cycle;Max_cycle;Signal;HPM_P1;HPM_P2
2021/08/17 00:01:13;;;;;;;37.00;26.30;;;22.90;70.10;;;;;;5054922;28;20021;-77
2021/08/17 00:03:39;;;;;;;38.03;26.15;;;22.80;70.20;;;;;;5054765;28;20024;-77
2021/08/17 00:06:07;;;;;;;38.85;24.77;;;22.80;70.30;;;;;;5054662;28;20025;-77
2021/08/17 00:08:33;;;;;;;36.30;25.58;;;22.80;70.50;;;;;;5054703;28;20445;-77
2021/08/17 00:10:59;;;;;;;37.60;24.17;;;22.70;70.60;;;;;;5053263;28;20025;-77
2021/08/17 00:13:25;;;;;;;32.97;22.73;;;22.70;70.50;;;;;;5054403;28;20361;-76
2021/08/17 00:15:51;;;;;;;28.58;19.83;;;22.70;70.20;;;;;;5054479;28;20523;-78
2021/08/17 00:18:17;;;;;;;28.10;21.30;;;22.80;69.90;;;;;;5054441;28;20033;-76
2021/08/17 00:20:43;;;;;;;31.83;21.35;;;22.80;69.70;;;;;;5054467;28;20096;-77
2021/08/17 00:23:09;;;;;;;27.83;20.48;;;22.80;69.50;;;;;;5054656;28;20056;-78
2021/08/17 00:25:35;;;;;;;34.05;22.30;;;22.80;69.40;;;;;;5054333;28;20435;-77
2021/08/17 00:28:01;;;;;;;35.22;24.73;;;22.80;69.40;;;;;;5054250;28;20060;-77
2021/08/17 00:30:28;;;;;;;30.73;22.48;;;22.80;69.30;;;;;;5054318;28;20083;-78
2021/08/17 00:32:54;;;;;;;32.65;23.00;;;22.80;69.30;;;;;;5054137;28;20024;-78
2021/08/17 00:35:23;;;;;;;32.65;23.02;;;22.80;69.30;;;;;;5054083;28;20383;-77
2021/08/17 00:37:49;;;;;;;33.90;23.00;;;22.80;69.40;;;;;;5054188;28;20213;-78
2021/08/17 00:40:15;;;;;;;32.50;22.63;;;22.80;69.40;;;;;;5053405;28;20364;-78
2021/08/17 00:42:45;;;;;;;35.13;22.10;;;22.80;69.40;;;;;;5054105;28;20032;-77
2021/08/17 00:45:27;;;;;;;34.35;22.13;;;22.80;69.10;;;;;;5052838;28;20434;-77
2021/08/17 00:47:54;;;;;;;35.43;21.63;;;22.80;69.00;;;;;;5054437;28;20811;-77
2021/08/17 00:50:22;;;;;;;33.13;21.83;;;22.80;68.90;;;;;;5053788;28;20031;-77
2021/08/17 00:52:50;;;;;;;33.00;21.30;;;22.80;69.00;;;;;;5054309;28;20025;-78
2021/08/17 00:55:17;;;;;;;35.42;19.88;;;22.80;68.80;;;;;;5054018;28;20374;-78
2021/08/17 00:57:44;;;;;;;29.10;20.08;;;22.70;68.70;;;;;;5052492;28;20052;-78
2021/08/17 01:00:11;;;;;;;26.05;19.27;;;22.80;68.60;;;;;;5053746;28;20028;-78
2021/08/17 01:02:36;;;;;;;31.33;19.70;;;22.70;68.50;;;;;;5052603;28;20115;-78
2021/08/17 01:05:05;;;;;;;31.10;20.35;;;22.70;68.50;;;;;;5054047;28;20120;-78
2021/08/17 01:07:31;;;;;;;28.85;19.48;;;22.70;68.40;;;;;;5053768;28;20028;-77
2021/08/17 01:09:56;;;;;;;27.23;19.33;;;22.70;68.30;;;;;;5054129;28;20029;-78
2021/08/17 01:12:22;;;;;;;27.67;18.80;;;22.70;68.30;;;;;;5053756;28;20079;-78
2021/08/17 01:14:48;;;;;;;29.13;18.85;;;22.70;68.20;;;;;;5053630;28;20402;-78
2021/08/17 01:17:16;;;;;;;30.40;19.13;;;22.70;68.10;;;;;;5053460;28;20021;-76
2021/08/17 01:19:42;;;;;;;31.02;18.83;;;22.70;68.00;;;;;;5053710;28;20025;-76
2021/08/17 01:22:08;;;;;;;26.88;18.92;;;22.70;68.10;;;;;;5053369;28;20536;-76
2021/08/17 01:24:34;;;;;;;30.63;18.23;;;22.60;68.00;;;;;;5053450;28;20029;-76
2021/08/17 01:27:00;;;;;;;28.98;18.50;;;22.60;68.10;;;;;;5052219;28;20102;-77
2021/08/17 01:29:25;;;;;;;25.98;18.02;;;22.60;68.10;;;;;;5053391;28;20017;-76
2021/08/17 01:31:51;;;;;;;29.05;18.35;;;22.60;68.00;;;;;;5053211;28;20025;-77
2021/08/17 01:34:18;;;;;;;25.48;16.75;;;22.60;68.00;;;;;;5053157;28;20032;-77
2021/08/17 01:36:44;;;;;;;29.67;19.17;;;22.60;68.00;;;;;;5052741;28;20375;-77
2021/08/17 01:39:09;;;;;;;28.02;17.95;;;22.60;68.10;;;;;;5053070;28;20025;-77
2021/08/17 01:41:35;;;;;;;27.10;17.70;;;22.50;68.10;;;;;;5052800;28;20444;-77
2021/08/17 01:44:07;;;;;;;28.75;18.13;;;22.50;68.10;;;;;;5052922;28;20096;-77
2021/08/17 01:46:33;;;;;;;;;;;22.50;68.20;;;;;;5053436;28;20109;-78
2021/08/17 01:48:58;;;;;;;31.10;19.92;;;22.40;68.10;;;;;;5052865;28;19999;-78
2021/08/17 01:51:24;;;;;;;27.63;19.27;;;22.40;68.20;;;;;;5052222;28;20029;-78
2021/08/17 01:53:50;;;;;;;27.27;18.10;;;22.40;68.30;;;;;;5052443;28;20111;-79
2021/08/17 01:56:16;;;;;;;31.73;17.95;;;22.30;68.30;;;;;;5051197;28;20059;-77
2021/08/17 01:58:42;;;;;;;30.17;16.65;;;22.30;68.40;;;;;;5052613;28;20040;-77
2021/08/17 02:01:10;;;;;;;24.90;17.08;;;22.30;68.40;;;;;;5052528;28;20025;-77
2021/08/17 02:03:36;;;;;;;25.98;15.93;;;22.30;68.40;;;;;;5052482;28;20025;-76
2021/08/17 02:06:02;;;;;;;25.10;16.30;;;22.30;68.30;;;;;;5052478;28;20039;-78
2021/08/17 02:08:28;;;;;;;27.70;15.95;;;22.30;68.20;;;;;;5052412;28;20032;-78
2021/08/17 02:10:54;;;;;;;29.25;16.90;;;22.30;68.10;;;;;;5052361;28;20025;-77
2021/08/17 02:13:20;;;;;;;30.23;17.55;;;22.30;68.10;;;;;;5052403;28;20533;-78
2021/08/17 02:15:48;;;;;;;27.40;16.33;;;22.30;68.10;;;;;;5052349;28;20013;-79
2021/08/17 02:18:13;;;;;;;28.95;16.08;;;22.30;68.20;;;;;;5052264;28;20096;-78
2021/08/17 02:20:40;;;;;;;28.25;16.80;;;22.20;68.30;;;;;;5052481;28;20111;-79
2021/08/17 02:23:06;;;;;;;30.80;17.95;;;22.20;68.50;;;;;;5052510;28;20132;-78
2021/08/17 02:25:32;;;;;;;29.95;18.20;;;22.20;68.80;;;;;;5052430;28;20132;-78
2021/08/17 02:27:58;;;;;;;28.10;18.52;;;22.10;68.90;;;;;;5051918;28;20092;-76
2021/08/17 02:30:24;;;;;;;26.63;17.75;;;22.00;69.10;;;;;;5052358;28;20096;-77
2021/08/17 02:32:49;;;;;;;25.75;16.85;;;22.00;69.30;;;;;;5052429;28;20510;-77
2021/08/17 02:35:15;;;;;;;24.75;17.50;;;21.90;69.40;;;;;;5052057;28;20035;-77
2021/08/17 02:37:41;;;;;;;24.77;17.00;;;21.90;69.60;;;;;;5051727;28;20050;-77
2021/08/17 02:40:07;;;;;;;23.05;16.60;;;21.80;69.70;;;;;;5051630;28;20099;-78
2021/08/17 02:42:33;;;;;;;23.25;17.05;;;21.80;69.70;;;;;;5051573;28;20025;-77
2021/08/17 02:45:00;;;;;;;24.83;16.33;;;21.80;69.90;;;;;;5051583;28;20066;-76
2021/08/17 02:47:26;;;;;;;20.52;15.60;;;21.80;70.00;;;;;;5051515;28;20108;-77
2021/08/17 02:49:52;;;;;;;23.30;16.13;;;21.80;69.90;;;;;;5051934;28;20477;-77
2021/08/17 02:52:18;;;;;;;18.73;15.38;;;21.80;69.80;;;;;;5051796;28;20112;-77
2021/08/17 02:54:43;;;;;;;25.65;15.30;;;21.90;69.70;;;;;;5051923;28;20520;-77
2021/08/17 02:57:09;;;;;;;21.45;15.07;;;21.90;69.60;;;;;;5051550;28;20067;-78
2021/08/17 02:59:35;;;;;;;21.67;14.68;;;21.90;69.50;;;;;;5051875;28;20029;-78
2021/08/17 03:02:01;;;;;;;19.17;13.68;;;22.10;69.40;;;;;;5051640;28;20369;-77
2021/08/17 03:04:27;;;;;;;17.27;13.15;;;22.20;68.90;;;;;;5056863;28;20032;-77
2021/08/17 03:06:54;;;;;;;17.75;13.73;;;22.40;68.30;;;;;;5058357;28;20025;-77
2021/08/17 03:09:20;;;;;;;18.38;13.30;;;22.80;67.90;;;;;;5058337;28;20389;-77
2021/08/17 03:11:46;;;;;;;18.05;13.23;;;23.10;67.00;;;;;;5058123;28;20039;-77
2021/08/17 03:14:12;;;;;;;16.20;13.23;;;23.50;66.10;;;;;;5058256;28;20074;-77
2021/08/17 03:16:39;;;;;;;19.85;13.25;;;23.90;65.30;;;;;;5058418;28;20025;-77
2021/08/17 03:19:05;;;;;;;20.00;13.40;;;24.40;64.40;;;;;;5058372;28;20025;-77
2021/08/17 03:21:30;;;;;;;17.15;12.93;;;25.00;63.10;;;;;;5058126;28;20032;-77
2021/08/17 03:23:56;;;;;;;23.00;13.50;;;25.50;61.80;;;;;;5058136;28;20521;-77
2021/08/17 03:26:22;;;;;;;17.27;12.05;;;26.00;60.60;;;;;;5057863;28;20040;-77
2021/08/17 03:28:47;;;;;;;25.13;12.40;;;26.40;59.60;;;;;;5057881;28;20025;-78
2021/08/17 03:31:13;;;;;;;14.30;11.43;;;27.00;58.70;;;;;;5056902;28;20115;-77
2021/08/17 03:33:39;;;;;;;19.55;11.77;;;27.60;57.50;;;;;;5058030;28;20029;-77
2021/08/17 03:36:05;;;;;;;20.80;11.50;;;28.30;56.30;;;;;;5058090;28;20379;-77
2021/08/17 03:38:32;;;;;;;21.30;11.95;;;29.00;55.00;;;;;;5057976;28;20116;-77
2021/08/17 03:40:58;;;;;;;17.70;13.63;;;29.70;53.80;;;;;;5057828;28;20032;-77
2021/08/17 03:43:25;;;;;;;20.23;12.57;;;30.30;52.70;;;;;;5058129;28;20035;-78
2021/08/17 03:45:52;;;;;;;14.18;12.10;;;31.00;51.60;;;;;;5057893;28;20029;-77
2021/08/17 03:48:18;;;;;;;15.82;10.77;;;31.60;50.50;;;;;;5057183;28;20017;-77
2021/08/17 03:50:43;;;;;;;13.30;10.27;;;32.20;49.40;;;;;;5057719;28;20495;-78
2021/08/17 03:53:09;;;;;;;14.27;10.10;;;32.70;48.30;;;;;;5057467;28;20029;-79
2021/08/17 03:55:35;;;;;;;16.45;11.02;;;33.10;47.40;;;;;;5057463;28;20048;-78
2021/08/17 03:58:00;;;;;;;16.15;10.63;;;33.50;46.80;;;;;;5057549;28;20407;-79
2021/08/17 04:00:28;;;;;;;19.10;11.52;;;34.10;46.30;;;;;;5057625;28;20024;-78
2021/08/17 04:02:55;;;;;;;16.25;10.73;;;34.60;45.60;;;;;;5057916;28;20095;-78
2021/08/17 04:05:21;;;;;;;20.02;10.98;;;35.10;44.80;;;;;;5057557;28;20067;-78
2021/08/17 04:07:47;;;;;;;16.67;10.98;;;35.60;44.20;;;;;;5057642;28;20074;-78
2021/08/17 04:10:13;;;;;;;18.33;11.55;;;36.00;43.60;;;;;;5057621;28;20025;-78
2021/08/17 04:12:39;;;;;;;21.40;11.50;;;36.40;43.10;;;;;;5057796;28;20033;-79
2021/08/17 04:15:07;;;;;;;24.85;13.00;;;36.80;42.50;;;;;;5054111;28;20032;-76
2021/08/17 04:17:33;;;;;;;15.40;11.25;;;37.20;42.00;;;;;;5054376;28;20032;-75
2021/08/17 04:19:59;;;;;;;16.17;11.52;;;37.60;41.60;;;;;;5054228;28;20025;-75
2021/08/17 04:22:24;;;;;;;16.45;11.50;;;37.90;41.10;;;;;;5053755;28;20451;-75
2021/08/17 04:24:51;;;;;;;15.75;11.57;;;38.10;40.80;;;;;;5054291;28;20053;-79
2021/08/17 04:27:16;;;;;;;15.48;11.25;;;38.30;40.40;;;;;;5053666;28;20077;-79
2021/08/17 04:29:44;;;;;;;14.32;11.50;;;38.60;40.10;;;;;;5054022;28;20067;-78
2021/08/17 04:32:11;;;;;;;16.58;11.50;;;39.00;39.80;;;;;;5053738;28;20112;-78
2021/08/17 04:34:37;;;;;;;14.52;11.35;;;39.30;39.40;;;;;;5053909;28;20024;-80
2021/08/17 04:37:03;;;;;;;18.35;10.68;;;39.60;39.00;;;;;;5053560;28;20536;-80
2021/08/17 04:39:29;;;;;;;13.73;10.60;;;40.00;38.70;;;;;;5052506;28;20025;-79
2021/08/17 04:41:55;;;;;;;21.55;11.80;;;40.20;38.60;;;;;;5053537;28;20089;-80
2021/08/17 04:44:21;;;;;;;15.02;11.82;;;40.50;38.40;;;;;;5053670;28;20501;-80
2021/08/17 04:46:47;;;;;;;19.42;11.30;;;40.70;38.20;;;;;;5052518;28;20090;-80
2021/08/17 04:49:12;;;;;;;17.95;11.13;;;41.00;38.00;;;;;;5054029;28;20028;-80
2021/08/17 04:51:38;;;;;;;18.02;11.60;;;41.30;37.70;;;;;;5053570;28;20025;-81
2021/08/17 04:54:04;;;;;;;16.30;11.95;;;41.60;37.50;;;;;;5053556;28;20468;-78
2021/08/17 04:56:30;;;;;;;19.92;11.80;;;41.80;37.40;;;;;;5053230;28;20037;-78
2021/08/17 04:58:56;;;;;;;14.88;11.38;;;42.00;37.20;;;;;;5053741;28;20431;-78
2021/08/17 05:01:21;;;;;;;17.42;11.75;;;42.30;37.10;;;;;;5052946;28;20048;-79
2021/08/17 05:03:47;;;;;;;17.13;10.95;;;42.50;36.90;;;;;;5052912;28;20025;-77
2021/08/17 05:06:13;;;;;;;18.13;11.57;;;42.80;36.50;;;;;;5053059;28;20371;-78
2021/08/17 05:08:39;;;;;;;15.07;10.73;;;43.00;36.30;;;;;;5052286;28;20043;-78
2021/08/17 05:11:05;;;;;;;13.73;10.25;;;43.30;36.00;;;;;;5053327;28;20090;-78
2021/08/17 05:13:30;;;;;;;16.65;11.43;;;43.40;35.70;;;;;;5052543;28;20461;-78
2021/08/17 05:15:56;;;;;;;14.02;10.40;;;43.60;35.50;;;;;;5052607;28;20031;-78
2021/08/17 05:18:22;;;;;;;17.10;11.48;;;43.50;35.10;;;;;;5054199;28;20025;-78
2021/08/17 05:20:48;;;;;;;14.60;10.20;;;43.50;35.30;;;;;;5052130;28;20025;-78
2021/08/17 05:23:13;;;;;;;13.43;11.10;;;43.80;35.30;;;;;;5050515;28;20044;-79
2021/08/17 05:25:39;;;;;;;14.90;10.50;;;44.10;35.10;;;;;;5050942;28;20070;-77
2021/08/17 05:28:05;;;;;;;16.60;11.00;;;44.30;34.70;;;;;;5049717;28;20476;-78
2021/08/17 05:30:31;;;;;;;12.32;11.02;;;44.60;34.60;;;;;;5051712;28;20036;-78
2021/08/17 05:32:56;;;;;;;15.88;10.32;;;44.80;34.30;;;;;;5050491;28;20025;-78
2021/08/17 05:35:22;;;;;;;18.40;10.45;;;45.00;34.10;;;;;;5051648;28;20485;-77
2021/08/17 05:37:48;;;;;;;17.70;10.10;;;45.30;33.80;;;;;;5052192;28;20021;-78
2021/08/17 05:40:14;;;;;;;20.02;10.57;;;45.60;33.50;;;;;;5051699;28;20029;-78
2021/08/17 05:42:40;;;;;;;14.68;9.90;;;45.70;33.40;;;;;;5052370;28;20029;-78
2021/08/17 05:45:08;;;;;;;12.10;9.30;;;45.90;33.10;;;;;;5052183;28;20080;-78
2021/08/17 05:47:33;;;;;;;15.95;9.40;;;46.20;32.80;;;;;;5051492;28;20021;-79
2021/08/17 05:49:59;;;;;;;13.45;9.90;;;46.30;32.60;;;;;;5051904;28;20021;-78
2021/08/17 05:52:25;;;;;;;10.15;9.02;;;46.40;32.50;;;;;;5052121;28;20052;-78
2021/08/17 05:54:51;;;;;;;15.48;9.68;;;46.50;32.30;;;;;;5051553;28;20112;-78
2021/08/17 05:57:18;;;;;;;14.10;9.30;;;46.60;32.30;;;;;;5051121;28;20059;-79
2021/08/17 05:59:44;;;;;;;13.85;8.95;;;46.70;32.10;;;;;;5051053;28;20025;-79
2021/08/17 06:02:10;;;;;;;13.77;8.60;;;46.70;32.00;;;;;;5051828;28;20319;-78
2021/08/17 06:04:35;;;;;;;13.15;8.65;;;46.80;31.70;;;;;;5051662;28;20021;-79
2021/08/17 06:07:01;;;;;;;14.43;8.50;;;47.00;31.40;;;;;;5051545;28;20455;-78
2021/08/17 06:09:27;;;;;;;11.05;8.25;;;47.10;31.30;;;;;;5051484;28;20071;-78
2021/08/17 06:11:57;;;;;;;13.23;7.75;;;47.30;31.30;;;;;;5051794;28;20033;-78
2021/08/17 06:14:24;;;;;;;16.55;8.40;;;47.30;30.90;;;;;;5051827;28;20020;-79
2021/08/17 06:16:50;;;;;;;10.18;7.80;;;47.10;30.70;;;;;;5051530;28;20079;-78
2021/08/17 06:19:15;;;;;;;15.43;7.45;;;47.30;30.90;;;;;;5051568;28;20033;-78
2021/08/17 06:21:41;;;;;;;15.15;7.85;;;47.40;30.60;;;;;;5051442;28;20025;-79
2021/08/17 06:24:07;;;;;;;13.27;7.13;;;47.50;30.60;;;;;;5051399;28;20099;-78
2021/08/17 06:26:33;;;;;;;16.30;7.95;;;47.60;30.40;;;;;;5051630;28;20021;-79
2021/08/17 06:29:00;;;;;;;14.27;7.07;;;47.60;30.10;;;;;;5051473;28;20025;-79
2021/08/17 06:31:25;;;;;;;12.48;6.75;;;47.50;30.00;;;;;;5051674;28;20037;-78
2021/08/17 06:33:54;;;;;;;12.25;6.90;;;47.30;29.90;;;;;;5051592;28;20035;-78
2021/08/17 06:36:20;;;;;;;8.85;6.57;;;47.40;30.00;;;;;;5051297;28;20027;-77
2021/08/17 06:38:46;;;;;;;21.85;7.15;;;47.50;30.10;;;;;;5050755;28;20099;-78
2021/08/17 06:41:12;;;;;;;12.35;7.07;;;47.60;30.00;;;;;;5050613;28;20066;-78
2021/08/17 06:43:38;;;;;;;12.52;6.85;;;47.40;29.80;;;;;;5051167;28;20473;-79
2021/08/17 06:46:04;;;;;;;10.40;6.50;;;47.40;29.90;;;;;;5051329;28;20078;-78
2021/08/17 06:48:30;;;;;;;13.82;6.93;;;47.60;30.00;;;;;;5051164;28;20048;-78
2021/08/17 06:50:56;;;;;;;8.00;6.43;;;47.80;30.00;;;;;;5051074;28;20021;-78
2021/08/17 06:53:22;;;;;;;8.00;6.50;;;47.80;29.80;;;;;;5050993;28;20468;-76
2021/08/17 06:55:47;;;;;;;7.97;6.78;;;47.80;29.60;;;;;;5050700;28;20099;-76
2021/08/17 06:58:14;;;;;;;12.10;6.28;;;47.70;29.30;;;;;;5050437;28;20056;-76
2021/08/17 07:00:44;;;;;;;8.20;6.53;;;47.70;29.40;;;;;;5049962;28;20142;-75
2021/08/17 07:03:10;;;;;;;13.82;6.50;;;47.70;29.30;;;;;;5051448;28;20028;-77
2021/08/17 07:05:37;;;;;;;8.88;6.45;;;47.60;29.30;;;;;;5051298;28;20014;-76
2021/08/17 07:08:05;;;;;;;13.20;6.88;;;47.50;29.10;;;;;;5051116;28;20021;-76
2021/08/17 07:10:31;;;;;;;16.80;7.03;;;47.30;29.20;;;;;;5049692;28;20033;-75
2021/08/17 07:12:57;;;;;;;9.75;6.53;;;47.20;29.20;;;;;;5051152;28;20025;-76
2021/08/17 07:15:23;;;;;;;15.50;7.28;;;47.10;29.30;;;;;;5051152;28;20471;-76
2021/08/17 07:17:49;;;;;;;9.32;6.50;;;47.00;29.30;;;;;;5050894;28;20029;-76
2021/08/17 07:20:16;;;;;;;18.48;6.45;;;46.80;29.20;;;;;;5051240;28;20119;-75
2021/08/17 07:22:42;;;;;;;11.48;6.63;;;46.70;29.20;;;;;;5050807;28;20025;-75
2021/08/17 07:25:09;;;;;;;19.17;7.90;;;46.60;29.30;;;;;;5050952;28;20171;-79
2021/08/17 07:27:35;;;;;;;9.57;6.45;;;46.60;29.40;;;;;;5050819;28;20772;-78
2021/08/17 07:30:01;;;;;;;8.45;6.43;;;46.50;29.30;;;;;;5049602;28;20079;-78
2021/08/17 07:32:27;;;;;;;17.48;6.50;;;46.30;29.40;;;;;;5049567;28;20573;-79
2021/08/17 07:34:52;;;;;;;10.30;6.20;;;46.20;29.40;;;;;;5050637;28;20032;-79
2021/08/17 07:37:18;;;;;;;10.45;6.60;;;46.20;29.40;;;;;;5049740;28;20052;-79
2021/08/17 07:39:44;;;;;;;10.07;6.75;;;46.00;29.40;;;;;;5050122;28;20017;-78
2021/08/17 07:42:09;;;;;;;11.40;6.22;;;45.90;29.60;;;;;;5049870;28;20033;-78
2021/08/17 07:44:35;;;;;;;11.98;5.43;;;45.80;29.60;;;;;;5050804;28;20049;-78
2021/08/17 07:47:02;;;;;;;7.18;6.40;;;45.60;29.50;;;;;;5050783;28;20382;-77
2021/08/17 07:49:28;;;;;;;11.05;7.00;;;45.40;29.70;;;;;;5050977;28;20426;-78
2021/08/17 07:51:54;;;;;;;8.65;6.00;;;45.20;29.90;;;;;;5053304;28;20029;-80
2021/08/17 07:54:20;;;;;;;16.85;6.43;;;45.00;29.90;;;;;;5052878;28;20120;-82
2021/08/17 07:56:49;;;;;;;8.25;6.10;;;44.60;29.80;;;;;;5053952;28;20444;-82
2021/08/17 07:59:15;;;;;;;9.07;5.95;;;44.20;29.90;;;;;;5055869;28;20083;-83
2021/08/17 08:01:40;;;;;;;9.70;6.25;;;43.90;29.90;;;;;;5057811;28;20029;-83
2021/08/17 08:04:06;;;;;;;10.23;5.82;;;43.70;29.90;;;;;;5055775;28;20025;-83
2021/08/17 08:06:32;;;;;;;9.43;6.00;;;43.40;30.00;;;;;;5054315;28;20056;-83
2021/08/17 08:08:58;;;;;;;6.72;5.88;;;43.20;30.10;;;;;;5054161;28;20091;-85
2021/08/17 08:11:24;;;;;;;12.73;6.20;;;43.00;30.10;;;;;;5056216;28;20021;-84
2021/08/17 08:13:49;;;;;;;13.00;6.00;;;42.80;30.20;;;;;;5055423;28;20491;-81
2021/08/17 08:16:16;;;;;;;13.30;6.15;;;42.50;30.50;;;;;;5053597;28;20028;-82
2021/08/17 08:18:41;;;;;;;6.53;5.53;;;42.30;30.80;;;;;;5053814;28;20033;-82
2021/08/17 08:21:07;;;;;;;15.77;5.88;;;42.00;30.60;;;;;;5054576;28;20043;-82
2021/08/17 08:23:33;;;;;;;8.93;5.78;;;41.70;30.80;;;;;;5054042;28;20024;-82
2021/08/17 08:25:59;;;;;;;8.85;5.63;;;41.50;30.90;;;;;;5054142;28;20096;-81
2021/08/17 08:28:25;;;;;;;13.77;6.13;;;41.30;31.00;;;;;;5052793;28;20028;-81
2021/08/17 08:30:50;;;;;;;12.43;6.50;;;41.20;31.30;;;;;;5054273;28;20096;-82
2021/08/17 08:33:16;;;;;;;12.43;5.97;;;41.10;31.40;;;;;;5054025;28;20025;-82
2021/08/17 08:35:42;;;;;;;8.85;6.10;;;41.00;31.50;;;;;;5053529;28;20028;-81
2021/08/17 08:38:08;;;;;;;9.95;5.97;;;40.80;31.70;;;;;;5053630;28;20033;-81
2021/08/17 08:40:34;;;;;;;11.95;6.20;;;40.70;31.80;;;;;;5053870;28;20120;-81
2021/08/17 08:43:00;;;;;;;10.85;5.88;;;40.60;32.00;;;;;;5053843;28;20036;-81
2021/08/17 08:45:26;;;;;;;10.70;6.53;;;40.50;32.10;;;;;;5053807;28;20029;-82
2021/08/17 08:47:51;;;;;;;16.13;7.22;;;40.40;32.20;;;;;;5054106;28;20059;-83
2021/08/17 08:50:17;;;;;;;11.30;7.22;;;40.20;32.40;;;;;;5053286;28;20023;-77
2021/08/17 08:52:44;;;;;;;11.57;6.40;;;39.90;32.60;;;;;;5053146;28;20104;-78
2021/08/17 08:55:11;;;;;;;9.30;6.22;;;39.70;32.60;;;;;;5053200;28;20075;-77
2021/08/17 08:57:36;;;;;;;10.70;6.97;;;39.50;32.40;;;;;;5053192;28;20060;-79
2021/08/17 09:00:09;;;;;;;8.18;7.15;;;39.20;32.50;;;;;;5053002;28;20100;-77
2021/08/17 09:02:35;;;;;;;11.38;7.60;;;39.00;33.00;;;;;;5051691;28;20021;-77
2021/08/17 09:05:02;;;;;;;14.25;7.20;;;38.80;33.20;;;;;;5052030;28;20029;-77
2021/08/17 09:07:39;;;;;;;17.02;7.25;;;38.80;33.60;;;;;;5053012;28;20071;-78
2021/08/17 09:10:17;;;;;;;15.45;8.43;;;38.80;33.60;;;;;;5052964;28;20028;-77
2021/08/17 09:13:08;;;;;;;15.45;8.73;;;38.80;33.80;;;;;;5053078;28;20087;-77
2021/08/17 09:15:36;;;;;;;14.68;8.25;;;38.70;34.00;;;;;;5051661;28;20045;-76
2021/08/17 09:18:01;;;;;;;10.55;7.30;;;38.70;34.10;;;;;;5053002;28;20064;-77
2021/08/17 09:20:32;;;;;;;11.40;7.55;;;38.60;34.30;;;;;;5052485;28;20053;-78
2021/08/17 09:23:17;;;;;;;;;;;38.50;34.50;;;;;;5053378;28;20029;-82
2021/08/17 09:25:43;;;;;;;8.82;7.45;;;38.30;34.40;;;;;;5052700;28;19950;-77
2021/08/17 09:28:29;;;;;;;10.85;7.07;;;38.20;34.80;;;;;;5052054;28;20022;-78
2021/08/17 09:30:57;;;;;;;13.43;7.95;;;37.80;35.20;;;;;;5049920;28;20100;-80
2021/08/17 09:33:32;;;;;;;9.88;7.22;;;37.60;35.40;;;;;;5052174;28;20032;-79
2021/08/17 09:36:00;;;;;;;16.02;7.78;;;37.30;35.80;;;;;;5052089;28;20028;-79
2021/08/17 09:38:31;;;;;;;10.23;7.75;;;37.00;36.20;;;;;;5050271;28;20025;-82
2021/08/17 09:40:57;;;;;;;9.68;7.15;;;36.80;36.50;;;;;;5051976;28;20032;-78
2021/08/17 09:43:24;;;;;;;12.05;7.10;;;36.80;36.80;;;;;;5052760;28;20108;-80
2021/08/17 09:45:50;;;;;;;17.52;7.80;;;36.80;36.70;;;;;;5052778;28;20067;-80
2021/08/17 09:48:28;;;;;;;13.13;7.30;;;36.60;36.70;;;;;;5052689;28;20075;-80
2021/08/17 09:50:54;;;;;;;10.98;7.45;;;36.40;37.70;;;;;;5052483;28;20118;-80
2021/08/17 09:53:21;;;;;;;13.10;7.85;;;36.30;37.30;;;;;;5052376;28;20539;-80
2021/08/17 09:55:58;;;;;;;11.13;7.85;;;36.40;37.20;;;;;;5052167;28;20108;-81
2021/08/17 09:58:25;;;;;;;14.00;7.78;;;36.30;37.20;;;;;;5052730;28;20029;-84
2021/08/17 10:00:54;;;;;;;9.75;8.02;;;36.40;37.40;;;;;;5054012;28;20029;-81
2021/08/17 10:03:21;;;;;;;15.40;8.05;;;36.40;37.30;;;;;;5052535;28;20042;-81
2021/08/17 10:05:47;;;;;;;12.80;8.48;;;36.40;37.10;;;;;;5052788;28;20882;-82
2021/08/17 10:08:16;;;;;;;15.13;8.35;;;36.30;37.30;;;;;;5053386;28;20029;-81
2021/08/17 10:10:46;;;;;;;11.00;7.22;;;36.30;37.50;;;;;;5050080;28;20025;-83
2021/08/17 10:13:15;;;;;;;15.77;7.80;;;36.20;37.30;;;;;;5051307;28;20029;-81
2021/08/17 10:15:43;;;;;;;8.73;7.32;;;36.20;37.30;;;;;;5051488;28;20379;-82
2021/08/17 10:18:10;;;;;;;12.45;7.32;;;36.10;37.50;;;;;;5051612;28;20464;-83
2021/08/17 10:20:42;;;;;;;10.43;7.20;;;36.10;37.70;;;;;;5050500;28;20037;-81
2021/08/17 10:23:08;;;;;;;13.80;7.57;;;36.10;37.80;;;;;;5051562;28;20036;-82
2021/08/17 10:25:52;;;;;;;19.52;7.50;;;36.10;37.60;;;;;;5051183;28;20107;-81
2021/08/17 10:28:27;;;;;;;9.32;7.07;;;36.00;37.40;;;;;;5051559;28;20013;-82
2021/08/17 10:30:53;;;;;;;9.52;6.90;;;35.80;37.40;;;;;;5055505;28;20044;-83
2021/08/17 10:33:51;;;;;;;13.48;6.95;;;35.60;37.50;;;;;;5052462;28;20418;-82
2021/08/17 10:36:42;;;;;;;13.50;7.57;;;35.40;38.00;;;;;;5047026;28;20059;-83
2021/08/17 10:39:17;;;;;;;12.77;6.90;;;35.40;38.20;;;;;;5050623;28;20024;-83
2021/08/17 10:41:47;;;;;;;13.88;7.10;;;35.40;38.20;;;;;;5049733;28;20483;-83
2021/08/17 10:44:20;;;;;;;15.70;7.15;;;35.40;38.00;;;;;;5051232;28;20096;-81
2021/08/17 10:46:57;;;;;;;10.95;7.72;;;35.30;38.10;;;;;;5051654;28;20021;-82
2021/08/17 10:49:31;;;;;;;15.70;7.43;;;35.20;38.10;;;;;;5050982;28;20029;-83
2021/08/17 10:52:08;;;;;;;9.73;7.25;;;35.00;38.70;;;;;;5051434;28;20035;-81
2021/08/17 10:54:35;;;;;;;11.10;7.53;;;35.00;38.80;;;;;;5050784;28;20025;-82
2021/08/17 10:57:21;;;;;;;10.45;7.30;;;35.00;38.70;;;;;;5050130;28;20130;-82
2021/08/17 10:59:49;;;;;;;14.85;7.55;;;35.00;38.50;;;;;;5049623;28;20104;-82
2021/08/17 11:02:22;;;;;;;15.63;6.47;;;35.00;38.20;;;;;;5050974;28;20029;-81
2021/08/17 11:04:48;;;;;;;13.93;6.90;;;34.90;38.20;;;;;;5051050;28;20044;-81
2021/08/17 11:07:32;;;;;;;14.45;6.97;;;34.70;38.40;;;;;;5051048;28;20099;-82
2021/08/17 11:10:04;;;;;;;15.90;7.82;;;34.60;38.60;;;;;;5049093;28;20021;-81
2021/08/17 11:12:32;;;;;;;16.17;7.35;;;34.50;38.70;;;;;;5050362;28;20033;-81
2021/08/17 11:14:58;;;;;;;19.77;7.47;;;34.50;38.70;;;;;;5051285;28;20334;-83
2021/08/17 11:17:24;;;;;;;14.60;7.00;;;34.50;39.00;;;;;;5051678;28;20032;-83
2021/08/17 11:19:55;;;;;;;18.00;7.32;;;34.50;38.90;;;;;;5049845;28;20033;-83
2021/08/17 11:22:30;;;;;;;8.63;6.72;;;34.60;39.00;;;;;;5050043;28;20514;-82
2021/08/17 11:24:58;;;;;;;8.82;7.60;;;34.80;39.00;;;;;;5052546;28;20106;-83
2021/08/17 11:27:35;;;;;;;16.40;7.63;;;34.80;38.90;;;;;;5055593;28;20028;-82
2021/08/17 11:30:08;;;;;;;15.02;7.93;;;34.80;39.00;;;;;;5055949;28;20060;-82
2021/08/17 11:32:47;;;;;;;11.10;7.57;;;34.80;38.90;;;;;;5054631;28;20025;-84
2021/08/17 11:35:16;;;;;;;11.60;7.45;;;34.80;38.90;;;;;;5055630;28;20096;-83
2021/08/17 11:37:48;;;;;;;11.25;7.68;;;34.80;38.90;;;;;;5055468;28;20039;-84
2021/08/17 11:40:17;;;;;;;17.73;10.60;;;34.80;39.00;;;;;;5055354;28;20426;-83
2021/08/17 11:42:44;;;;;;;12.27;7.13;;;34.80;39.10;;;;;;5055218;28;20029;-83
2021/08/17 11:45:11;;;;;;;13.98;6.78;;;34.80;38.90;;;;;;5055290;28;20017;-83
2021/08/17 11:47:40;;;;;;;12.23;7.10;;;34.80;38.90;;;;;;5055246;28;20727;-82
2021/08/17 11:50:10;;;;;;;13.48;6.70;;;34.80;39.20;;;;;;5054092;28;20021;-82
2021/08/17 11:52:44;;;;;;;9.57;6.45;;;34.80;39.30;;;;;;5055517;28;20107;-82
2021/08/17 11:55:15;;;;;;;13.85;7.10;;;34.90;39.20;;;;;;5054829;28;20033;-83
2021/08/17 11:57:45;;;;;;;9.48;7.28;;;34.90;39.00;;;;;;5055003;28;20123;-83
2021/08/17 12:00:23;;;;;;;15.93;8.15;;;35.00;39.00;;;;;;5055174;28;20033;-84
2021/08/17 12:03:06;;;;;;;14.93;7.78;;;35.00;39.10;;;;;;5052987;28;20036;-83
2021/08/17 12:05:34;;;;;;;9.05;7.47;;;34.90;39.10;;;;;;5054453;28;20023;-83
2021/08/17 12:08:02;;;;;;;11.18;7.20;;;34.90;38.80;;;;;;5054402;28;20028;-81
2021/08/17 12:10:36;;;;;;;13.85;6.65;;;34.80;38.90;;;;;;5055627;28;20013;-87
2021/08/17 12:13:07;;;;;;;11.07;6.93;;;34.80;39.20;;;;;;5054326;28;20111;-88
2021/08/17 12:15:40;;;;;;;11.85;6.80;;;34.80;39.20;;;;;;5055568;28;20052;-82
2021/08/17 12:18:19;;;;;;;9.77;6.80;;;34.80;39.00;;;;;;5056598;28;20035;-84
2021/08/17 12:21:07;;;;;;;10.30;7.20;;;34.70;39.00;;;;;;5054141;28;20029;-79
2021/08/17 12:23:39;;;;;;;14.77;6.88;;;34.60;39.00;;;;;;5052971;28;20035;-80
2021/08/17 12:26:17;;;;;;;12.18;7.00;;;34.70;39.20;;;;;;5053078;28;20104;-80
2021/08/17 12:28:48;;;;;;;14.20;6.95;;;34.60;39.30;;;;;;5052442;28;20040;-81
2021/08/17 12:31:16;;;;;;;15.15;6.88;;;34.50;39.30;;;;;;5053848;28;20309;-81
2021/08/17 12:33:50;;;;;;;14.23;7.13;;;34.40;39.40;;;;;;5053010;28;20021;-80
2021/08/17 12:36:18;;;;;;;10.98;6.47;;;34.40;39.50;;;;;;5053279;28;20017;-82